createdAt,value
2023-04-06T00:02:54.565Z,1.13
2023-04-06T00:05:57.143Z,1.03
2023-04-06T00:08:59.670Z,0.98
2023-04-06T00:12:02.259Z,0.94
2023-04-06T00:15:06.612Z,0.88
2023-04-06T00:18:09.222Z,0.79
2023-04-06T00:21:15.614Z,0.82
2023-04-06T00:24:18.127Z,0.81
2023-04-06T00:27:20.476Z,0.79
2023-04-06T00:30:23.353Z,0.82
2023-04-06T00:33:25.826Z,0.81
2023-04-06T00:36:28.448Z,0.82
2023-04-06T00:39:30.910Z,0.73
2023-04-06T00:42:33.668Z,0.62
2023-04-06T00:45:36.272Z,0.60
2023-04-06T00:48:40.194Z,0.58
2023-04-06T00:51:42.612Z,0.52
2023-04-06T00:54:45.582Z,0.43
2023-04-06T00:57:49.596Z,0.37
2023-04-06T01:00:52.220Z,0.35
2023-04-06T01:03:55.319Z,0.37
2023-04-06T01:06:59.270Z,0.31
2023-04-06T01:10:03.855Z,0.28
2023-04-06T01:13:08.085Z,0.15
2023-04-06T01:16:12.761Z,0.15
2023-04-06T01:19:17.281Z,-0.03
2023-04-06T01:22:20.144Z,-0.08
2023-04-06T01:25:23.037Z,-0.06
2023-04-06T01:28:26.180Z,-0.02
2023-04-06T01:31:29.165Z,-0.04
2023-04-06T01:34:31.405Z,-0.03
2023-04-06T01:37:36.583Z,-0.10
2023-04-06T01:40:39.485Z,-0.16
2023-04-06T01:43:42.408Z,-0.21
2023-04-06T01:46:44.972Z,-0.27
2023-04-06T01:49:50.394Z,-0.29
2023-04-06T01:52:53.059Z,-0.40
2023-04-06T01:55:56.209Z,-0.50
2023-04-06T01:58:59.070Z,-0.49
2023-04-06T02:02:02.747Z,-0.54
2023-04-06T02:05:06.434Z,-0.53
2023-04-06T02:08:09.054Z,-0.49
2023-04-06T02:11:13.576Z,-0.52
2023-04-06T02:14:16.115Z,-0.52
2023-04-06T02:17:20.519Z,-0.63
2023-04-06T02:20:23.040Z,-0.65
2023-04-06T02:23:26.096Z,-0.65
2023-04-06T02:26:28.295Z,-0.66
2023-04-06T02:29:30.907Z,-0.72
2023-04-06T02:32:33.579Z,-0.75
2023-04-06T02:35:36.728Z,-0.65
2023-04-06T02:38:39.331Z,-0.74
2023-04-06T02:41:41.602Z,-0.75
2023-04-06T02:44:44.799Z,-0.76
2023-04-06T02:47:47.349Z,-0.84
2023-04-06T02:50:50.876Z,-0.84
2023-04-06T02:53:53.359Z,-0.83
2023-04-06T02:56:56.625Z,-0.91
2023-04-06T02:59:59.313Z,-0.92
2023-04-06T03:03:02.716Z,-0.94
2023-04-06T03:06:05.364Z,-0.95
2023-04-06T03:09:08.412Z,-0.92
2023-04-06T03:12:11.245Z,-0.99
2023-04-06T03:15:15.565Z,-1.01
2023-04-06T03:18:24.009Z,-1.02
2023-04-06T03:21:26.611Z,-1.03
2023-04-06T03:24:29.495Z,-1.01
2023-04-06T03:27:32.476Z,-1.11
2023-04-06T03:30:35.574Z,-1.12
2023-04-06T03:33:39.823Z,-1.09
2023-04-06T03:36:43.113Z,-1.02
2023-04-06T03:39:45.676Z,-1.04
2023-04-06T03:42:51.738Z,-1.10
2023-04-06T03:45:54.421Z,-1.11
2023-04-06T03:48:56.952Z,-1.10
2023-04-06T03:51:59.884Z,-1.07
2023-04-06T03:55:02.170Z,-1.11
2023-04-06T03:58:04.721Z,-1.16
2023-04-06T04:01:07.056Z,-1.16
2023-04-06T04:04:11.257Z,-1.10
2023-04-06T04:07:13.515Z,-1.14
2023-04-06T04:10:16.174Z,-1.12
2023-04-06T04:13:18.487Z,-1.08
2023-04-06T04:16:21.949Z,-1.11
2023-04-06T04:19:24.188Z,-1.07
2023-04-06T04:22:28.705Z,-1.13
2023-04-06T04:25:31.024Z,-1.09
2023-04-06T04:28:33.691Z,-1.02
2023-04-06T04:31:36.427Z,-0.97
2023-04-06T04:34:42.450Z,-0.96
2023-04-06T04:37:45.431Z,-0.89
2023-04-06T04:40:48.042Z,-0.84
2023-04-06T04:43:50.302Z,-0.75
2023-04-06T04:46:56.127Z,-0.63
2023-04-06T04:50:00.237Z,-0.56
2023-04-06T04:53:02.805Z,-0.38
2023-04-06T04:56:05.132Z,-0.25
2023-04-06T04:59:08.028Z,-0.13
2023-04-06T05:02:10.944Z,0.03
2023-04-06T05:05:14.377Z,0.26
2023-04-06T05:08:17.021Z,0.53
2023-04-06T05:11:20.260Z,0.71
2023-04-06T05:14:23.643Z,0.75
2023-04-06T05:17:27.111Z,0.79
2023-04-06T05:20:30.519Z,1.17
2023-04-06T05:23:34.291Z,1.51
2023-04-06T05:26:37.430Z,1.74
2023-04-06T05:29:40.807Z,2.03
2023-04-06T05:32:44.374Z,2.26
2023-04-06T05:35:47.135Z,2.77
2023-04-06T05:38:51.558Z,3.41
2023-04-06T05:41:55.058Z,4.07
2023-04-06T05:44:58.645Z,4.46
2023-04-06T05:48:03.381Z,5.01
2023-04-06T05:51:09.222Z,5.29
2023-04-06T05:54:12.689Z,5.33
2023-04-06T05:57:17.425Z,6.59
2023-04-06T06:00:21.033Z,6.77
2023-04-06T06:03:23.901Z,7.23
2023-04-06T06:06:28.977Z,7.49
2023-04-06T06:09:32.649Z,7.79
2023-04-06T06:12:35.433Z,7.61
2023-04-06T06:15:37.967Z,6.96
2023-04-06T06:18:40.514Z,6.51
2023-04-06T06:21:43.555Z,7.46
2023-04-06T06:24:45.992Z,8.28
2023-04-06T06:27:48.997Z,7.74
2023-04-06T06:30:52.198Z,8.57
2023-04-06T06:33:55.505Z,8.67
2023-04-06T06:36:58.320Z,7.75
2023-04-06T06:40:01.121Z,7.00
2023-04-06T06:43:03.933Z,7.56
2023-04-06T06:46:07.177Z,7.66
2023-04-06T06:49:10.039Z,7.25
2023-04-06T06:52:13.337Z,7.55
2023-04-06T06:55:16.366Z,7.78
2023-04-06T06:58:22.990Z,7.61
2023-04-06T07:01:25.509Z,7.26
2023-04-06T07:04:30.273Z,7.92
2023-04-06T07:07:35.858Z,9.24
2023-04-06T07:10:38.402Z,9.22
2023-04-06T07:13:40.682Z,9.91
2023-04-06T07:16:43.428Z,10.09
2023-04-06T07:19:47.013Z,8.73
2023-04-06T07:22:49.602Z,8.20
2023-04-06T07:25:53.333Z,8.76
2023-04-06T07:28:55.942Z,8.86
2023-04-06T07:31:59.025Z,9.31
2023-04-06T07:35:02.935Z,8.51
2023-04-06T07:38:05.531Z,9.06
2023-04-06T07:41:10.948Z,8.23
2023-04-06T07:44:13.252Z,6.61
2023-04-06T07:47:16.021Z,6.65
2023-04-06T07:50:18.603Z,6.57
2023-04-06T07:53:21.226Z,6.90
2023-04-06T07:56:23.660Z,6.10
2023-04-06T07:59:26.222Z,6.55
2023-04-06T08:02:28.629Z,6.26
2023-04-06T08:05:31.313Z,6.42
2023-04-06T08:08:33.572Z,6.19
2023-04-06T08:11:36.160Z,6.27
2023-04-06T08:14:38.418Z,6.21
2023-04-06T08:17:41.328Z,6.40
2023-04-06T08:20:43.580Z,6.11
2023-04-06T08:23:47.031Z,6.06
2023-04-06T08:26:49.596Z,5.97
2023-04-06T08:29:52.477Z,6.20
2023-04-06T08:32:54.768Z,6.34
2023-04-06T08:35:57.384Z,6.72
2023-04-06T08:39:01.247Z,7.07
2023-04-06T08:42:04.290Z,6.71
2023-04-06T08:45:07.331Z,6.57
2023-04-06T08:48:10.698Z,6.69
2023-04-06T08:51:13.989Z,7.21
2023-04-06T08:54:16.746Z,7.20
2023-04-06T08:57:21.008Z,7.40
2023-04-06T09:00:25.403Z,7.52
2023-04-06T09:03:31.426Z,7.35
2023-04-06T09:06:34.061Z,7.02
2023-04-06T09:09:36.284Z,7.25
2023-04-06T09:12:38.845Z,7.92
2023-04-06T09:15:41.215Z,8.18
2023-04-06T09:18:43.943Z,8.64
2023-04-06T09:21:46.262Z,9.11
2023-04-06T09:24:51.159Z,8.85
2023-04-06T09:28:05.287Z,8.81
2023-04-06T09:31:07.903Z,8.57
2023-04-06T09:34:21.954Z,9.01
2023-04-06T09:37:24.464Z,8.66
2023-04-06T09:40:26.796Z,8.46
2023-04-06T09:43:29.865Z,8.75
2023-04-06T09:46:43.351Z,9.81
2023-04-06T09:50:00.097Z,9.26
2023-04-06T09:53:03.916Z,8.12
2023-04-06T09:56:12.733Z,8.80
2023-04-06T09:59:33.181Z,9.18
2023-04-06T10:03:04.744Z,9.34
2023-04-06T10:06:14.136Z,9.54
2023-04-06T10:09:16.923Z,10.00
2023-04-06T10:12:21.444Z,10.31
2023-04-06T10:15:24.087Z,10.87
2023-04-06T10:18:26.662Z,10.64
2023-04-06T10:21:31.703Z,11.06
2023-04-06T10:24:34.222Z,11.10
2023-04-06T10:27:36.694Z,11.07
2023-04-06T10:30:46.166Z,11.46
2023-04-06T10:34:02.282Z,11.78
2023-04-06T10:37:20.041Z,11.47
2023-04-06T10:40:26.528Z,10.86
2023-04-06T10:43:35.402Z,10.53
2023-04-06T10:46:37.623Z,10.45
2023-04-06T10:49:40.078Z,10.70
2023-04-06T10:52:42.326Z,10.82
2023-04-06T10:55:46.368Z,11.11
2023-04-06T10:58:50.391Z,11.27
2023-04-06T11:01:54.201Z,11.24
2023-04-06T11:05:00.219Z,11.58
2023-04-06T11:08:02.751Z,11.52
2023-04-06T11:11:19.557Z,11.58
2023-04-06T11:14:22.289Z,11.54
2023-04-06T11:17:28.833Z,11.16
2023-04-06T11:20:31.428Z,10.62
2023-04-06T11:23:33.720Z,10.36
2023-04-06T11:27:01.845Z,11.10
2023-04-06T11:30:04.989Z,11.99
2023-04-06T11:33:08.037Z,12.52
2023-04-06T11:36:10.540Z,12.67
2023-04-06T11:39:14.766Z,12.83
2023-04-06T11:42:30.338Z,12.64
2023-04-06T11:45:47.067Z,12.63
2023-04-06T11:48:50.562Z,12.75
2023-04-06T11:51:53.091Z,12.65
2023-04-06T11:54:57.799Z,12.60
2023-04-06T11:58:00.375Z,12.50
2023-04-06T12:01:06.023Z,12.38
2023-04-06T12:04:08.655Z,11.32
2023-04-06T12:07:11.148Z,11.74
2023-04-06T12:10:13.746Z,11.32
2023-04-06T12:13:17.802Z,10.50
2023-04-06T12:16:20.619Z,9.70
2023-04-06T12:19:26.464Z,9.26
2023-04-06T12:22:29.205Z,9.16
2023-04-06T12:25:32.413Z,9.32
2023-04-06T12:28:35.012Z,9.15
2023-04-06T12:31:39.842Z,9.43
2023-04-06T12:34:45.503Z,9.37
2023-04-06T12:37:47.774Z,9.43
2023-04-06T12:40:53.075Z,9.32
2023-04-06T12:43:55.639Z,10.31
2023-04-06T12:46:58.308Z,10.31
2023-04-06T12:50:00.595Z,10.14
2023-04-06T12:53:03.158Z,10.21
2023-04-06T12:56:14.761Z,9.94
2023-04-06T12:59:17.471Z,9.38
2023-04-06T13:02:23.059Z,9.29
2023-04-06T13:05:27.663Z,9.10
2023-04-06T13:08:31.035Z,9.47
2023-04-06T13:11:33.701Z,9.87
2023-04-06T13:14:35.960Z,9.60
2023-04-06T13:17:38.545Z,9.36
2023-04-06T13:20:40.889Z,9.58
2023-04-06T13:23:44.074Z,9.65
2023-04-06T13:26:46.382Z,9.67
2023-04-06T13:29:48.991Z,9.68
2023-04-06T13:32:51.701Z,9.25
2023-04-06T13:35:54.523Z,9.34
2023-04-06T13:38:56.940Z,9.49
2023-04-06T13:42:00.690Z,9.37
2023-04-06T13:45:05.452Z,9.48
2023-04-06T13:48:08.163Z,9.04
2023-04-06T13:51:12.511Z,8.99
2023-04-06T13:54:15.338Z,8.65
2023-04-06T13:57:17.719Z,8.90
2023-04-06T14:00:21.504Z,8.85
2023-04-06T14:03:25.284Z,8.75
2023-04-06T14:06:31.799Z,9.06
2023-04-06T14:09:34.727Z,8.93
2023-04-06T14:12:36.954Z,8.80
2023-04-06T14:15:39.868Z,8.47
2023-04-06T14:18:42.231Z,8.29
2023-04-06T14:21:48.245Z,8.22
2023-04-06T14:24:50.632Z,8.20
2023-04-06T14:27:53.092Z,8.48
2023-04-06T14:30:55.380Z,8.27
2023-04-06T14:33:58.439Z,7.84
2023-04-06T14:37:00.855Z,7.92
2023-04-06T14:40:04.510Z,7.68
2023-04-06T14:43:06.712Z,7.94
2023-04-06T14:46:09.531Z,8.08
2023-04-06T14:49:12.117Z,7.46
2023-04-06T14:52:14.616Z,7.48
2023-04-06T14:55:17.032Z,7.64
2023-04-06T14:58:20.398Z,7.56
2023-04-06T15:01:22.744Z,7.60
2023-04-06T15:04:25.568Z,7.39
2023-04-06T15:07:28.095Z,7.39
2023-04-06T15:10:34.148Z,7.45
2023-04-06T15:13:36.645Z,7.15
2023-04-06T15:16:39.326Z,6.80
2023-04-06T15:19:41.763Z,6.40
2023-04-06T15:22:45.255Z,6.40
2023-04-06T15:25:47.999Z,6.40
2023-04-06T15:28:50.635Z,6.19
2023-04-06T15:31:52.966Z,6.23
2023-04-06T15:34:58.529Z,6.36
2023-04-06T15:38:02.239Z,6.15
2023-04-06T15:41:05.254Z,5.70
2023-04-06T15:44:07.536Z,5.61
2023-04-06T15:47:10.195Z,5.59
2023-04-06T15:50:13.221Z,5.73
2023-04-06T15:53:15.998Z,5.95
2023-04-06T15:56:18.226Z,5.83
2023-04-06T15:59:20.748Z,5.77
2023-04-06T16:02:23.817Z,5.89
2023-04-06T16:05:28.524Z,5.98
2023-04-06T16:08:32.142Z,5.98
2023-04-06T16:11:34.801Z,6.05
2023-04-06T16:14:37.062Z,6.08
2023-04-06T16:17:39.684Z,6.02
2023-04-06T16:20:41.897Z,6.04
2023-04-06T16:23:45.731Z,6.13
2023-04-06T16:26:48.749Z,5.86
2023-04-06T16:29:51.712Z,6.02
2023-04-06T16:32:54.014Z,6.01
2023-04-06T16:35:56.561Z,5.93
2023-04-06T16:39:01.292Z,5.56
2023-04-06T16:42:03.930Z,5.27
2023-04-06T16:45:06.762Z,5.28
2023-04-06T16:48:12.123Z,5.26
2023-04-06T16:51:16.169Z,5.29
2023-04-06T16:54:18.791Z,5.10
2023-04-06T16:57:21.016Z,4.93
2023-04-06T17:00:24.267Z,4.93
2023-04-06T17:03:30.312Z,4.77
2023-04-06T17:06:33.401Z,4.67
2023-04-06T17:09:35.647Z,4.56
2023-04-06T17:12:38.151Z,4.25
2023-04-06T17:15:40.568Z,4.04
2023-04-06T17:18:43.284Z,3.86
2023-04-06T17:21:45.753Z,3.60
2023-04-06T17:24:48.925Z,3.56
2023-04-06T17:27:51.929Z,3.52
2023-04-06T17:30:54.453Z,3.40
2023-04-06T17:33:56.693Z,3.29
2023-04-06T17:36:59.136Z,3.30
2023-04-06T17:40:01.315Z,3.34
2023-04-06T17:43:06.905Z,3.33
2023-04-06T17:46:09.234Z,3.03
2023-04-06T17:49:13.228Z,2.97
2023-04-06T17:52:15.494Z,2.82
2023-04-06T17:55:21.200Z,2.82
2023-04-06T17:58:23.532Z,2.84
2023-04-06T18:01:26.183Z,2.84
2023-04-06T18:04:29.125Z,2.84
2023-04-06T18:07:32.219Z,2.74
2023-04-06T18:10:38.592Z,2.73
2023-04-06T18:13:40.956Z,2.63
2023-04-06T18:16:43.612Z,2.54
2023-04-06T18:19:46.268Z,2.59
2023-04-06T18:25:55.903Z,2.56
2023-04-06T18:28:58.356Z,2.51
2023-04-06T18:32:00.848Z,2.42
2023-04-06T18:35:03.880Z,2.45
2023-04-06T18:38:06.260Z,2.33
2023-04-06T18:41:08.881Z,2.25
2023-04-06T18:44:11.111Z,2.29
2023-04-06T18:47:13.610Z,2.28
2023-04-06T18:50:15.976Z,2.32
2023-04-06T18:53:18.520Z,2.33
2023-04-06T18:56:21.349Z,2.33
2023-04-06T18:59:23.957Z,2.25
2023-04-06T19:02:26.246Z,2.22
2023-04-06T19:05:28.857Z,2.28
2023-04-06T19:08:31.014Z,2.22
2023-04-06T19:11:33.798Z,2.35
2023-04-06T19:14:36.294Z,2.23
2023-04-06T19:17:39.288Z,2.17
2023-04-06T19:20:41.525Z,2.10
2023-04-06T19:23:45.377Z,2.06
2023-04-06T19:26:48.217Z,1.86
2023-04-06T19:29:50.901Z,1.77
2023-04-06T19:32:53.609Z,1.73
2023-04-06T19:35:56.389Z,1.80
2023-04-06T19:38:59.407Z,1.83
2023-04-06T19:42:01.999Z,1.92
2023-04-06T19:45:07.630Z,1.93
2023-04-06T19:48:10.161Z,2.04
2023-04-06T19:51:13.448Z,2.07
2023-04-06T19:54:15.994Z,2.05
2023-04-06T19:57:18.418Z,2.09
2023-04-06T20:00:21.027Z,2.18
2023-04-06T20:03:23.747Z,2.12
2023-04-06T20:06:26.692Z,2.09
2023-04-06T20:09:29.233Z,2.21
2023-04-06T20:12:31.645Z,2.12
2023-04-06T20:15:34.111Z,2.10
2023-04-06T20:18:37.161Z,2.27
2023-04-06T20:21:39.785Z,2.30
2023-04-06T20:24:41.989Z,2.26
2023-04-06T20:27:45.667Z,2.29
2023-04-06T20:30:52.131Z,2.36
2023-04-06T20:33:55.005Z,2.38
2023-04-06T20:36:58.567Z,2.39
2023-04-06T20:40:01.656Z,2.34
2023-04-06T20:43:05.615Z,2.46
2023-04-06T20:46:09.178Z,2.43
2023-04-06T20:49:12.778Z,2.48
2023-04-06T20:52:16.130Z,2.50
2023-04-06T20:55:18.495Z,2.51
2023-04-06T20:58:21.378Z,2.52
2023-04-06T21:01:23.867Z,2.51
2023-04-06T21:04:26.675Z,2.46
2023-04-06T21:07:28.933Z,2.40
2023-04-06T21:10:31.548Z,2.39
2023-04-06T21:13:34.552Z,2.38
2023-04-06T21:16:37.607Z,2.36
2023-04-06T21:19:39.882Z,2.37
2023-04-06T21:22:42.381Z,2.31
2023-04-06T21:25:44.863Z,2.28
2023-04-06T21:28:47.396Z,2.29
2023-04-06T21:31:49.734Z,2.27
2023-04-06T21:34:52.248Z,2.30
2023-04-06T21:37:54.677Z,2.34
2023-04-06T21:40:57.200Z,2.25
2023-04-06T21:43:59.898Z,2.26
2023-04-06T21:47:02.443Z,2.27
2023-04-06T21:50:04.952Z,2.30
2023-04-06T21:53:07.484Z,2.34
2023-04-06T21:56:09.686Z,2.36
2023-04-06T21:59:12.179Z,2.32
2023-04-06T22:02:14.457Z,2.34
2023-04-06T22:05:17.237Z,2.41
2023-04-06T22:08:32.724Z,2.44
2023-04-06T22:11:38.384Z,2.45
2023-04-06T22:14:40.625Z,2.37
2023-04-06T22:17:43.266Z,2.43
2023-04-06T22:20:45.757Z,2.44
2023-04-06T22:23:48.377Z,2.49
2023-04-06T22:26:50.660Z,2.59
2023-04-06T22:29:53.408Z,2.58
2023-04-06T22:32:55.632Z,2.58
2023-04-06T22:35:58.159Z,2.64
2023-04-06T22:39:00.419Z,2.77
2023-04-06T22:42:03.078Z,2.65
2023-04-06T22:45:06.131Z,2.70
2023-04-06T22:48:08.662Z,2.79
2023-04-06T22:51:10.895Z,2.77
2023-04-06T22:54:14.356Z,2.71
2023-04-06T22:57:17.064Z,2.80
2023-04-06T23:00:20.078Z,2.83
2023-04-06T23:03:22.400Z,2.80
2023-04-06T23:06:25.101Z,2.87
2023-04-06T23:09:27.377Z,2.82
2023-04-06T23:12:29.825Z,2.78
2023-04-06T23:15:32.823Z,2.88
2023-04-06T23:18:35.558Z,2.89
2023-04-06T23:21:37.772Z,2.88
2023-04-06T23:24:40.264Z,2.84
2023-04-06T23:27:42.403Z,2.82
2023-04-06T23:30:44.885Z,2.84
2023-04-06T23:33:47.077Z,2.91
2023-04-06T23:36:49.647Z,2.98
2023-04-06T23:39:51.871Z,2.86
2023-04-06T23:42:54.469Z,2.88
2023-04-06T23:45:56.882Z,2.86
2023-04-06T23:48:59.446Z,2.88
2023-04-06T23:52:01.862Z,2.84
2023-04-06T23:55:05.685Z,2.78
2023-04-06T23:58:08.986Z,2.77
